Time;durP1;ratioP1;P1;durP2;ratioP2;P2;SDS_P1;SDS_P2;PMS_P1;PMS_P2;Temp;Humidity;BMP_temperature;BMP_pressure;BME280_temperature;BME280_humidity;BME280_pressure;Samples;Min_cycle;Max_cycle;Signal;HPM_P1;HPM_P2
2023/01/27 00:00:55;;;;;;;22.10;11.60;;;2.10;1.00;;;;;;6165134;23;20205;-82
2023/01/27 00:03:23;;;;;;;21.40;10.95;;;2.20;1.00;;;;;;6165047;23;20269;-86
2023/01/27 00:05:54;;;;;;;21.52;10.95;;;2.20;1.00;;;;;;6164455;23;20210;-82
2023/01/27 00:08:20;;;;;;;23.27;11.90;;;2.20;1.00;;;;;;6162446;23;20223;-81
2023/01/27 00:13:25;;;;;;;21.33;11.50;;;2.20;1.00;;;;;;6164124;23;20215;-82
2023/01/27 00:13:35;;;;;;;25.60;12.40;;;2.20;1.00;;;;;;6140548;23;20215;-82
2023/01/27 00:16:02;;;;;;;24.35;10.30;;;2.20;1.00;;;;;;6152570;23;20222;-80
2023/01/27 00:18:31;;;;;;;20.27;10.90;;;2.20;1.00;;;;;;6149048;23;20237;-82
2023/01/27 00:26:32;;;;;;;22.90;11.38;;;2.30;1.00;;;;;;6164438;23;21018;-82
2023/01/27 00:29:03;;;;;;;18.50;9.05;;;2.30;1.00;;;;;;6167425;23;20223;-82
2023/01/27 00:34:22;;;;;;;22.38;10.88;;;2.40;1.00;;;;;;6166485;23;20920;-82
2023/01/27 00:36:50;;;;;;;21.40;11.13;;;2.30;1.00;;;;;;6171769;23;20215;-82
2023/01/27 00:39:18;;;;;;;19.02;9.88;;;2.30;1.00;;;;;;6165044;23;20316;-83
2023/01/27 00:41:46;;;;;;;21.50;11.15;;;2.30;1.00;;;;;;6167755;23;20270;-82
2023/01/27 00:44:15;;;;;;;22.20;11.68;;;2.30;1.00;;;;;;6164749;23;20259;-82
2023/01/27 00:46:44;;;;;;;19.35;11.25;;;2.30;1.00;;;;;;6165276;23;20226;-82
2023/01/27 00:49:12;;;;;;;18.40;9.85;;;2.20;1.00;;;;;;6164275;23;20278;-83
2023/01/27 00:51:39;;;;;;;22.42;11.75;;;2.30;1.00;;;;;;6166920;23;20215;-82
2023/01/27 00:54:06;;;;;;;21.77;11.63;;;2.40;1.00;;;;;;6166072;23;20773;-84
2023/01/27 00:56:35;;;;;;;20.75;10.93;;;2.30;1.00;;;;;;6162886;23;20509;-83
2023/01/27 00:59:02;;;;;;;22.25;10.50;;;2.30;1.00;;;;;;6165854;23;20206;-84
2023/01/27 01:01:32;;;;;;;21.63;11.38;;;2.30;1.00;;;;;;6170306;23;20219;-84
2023/01/27 01:04:00;;;;;;;24.45;12.23;;;2.30;1.00;;;;;;6165318;23;20194;-84
2023/01/27 01:06:27;;;;;;;21.95;11.20;;;2.40;1.00;;;;;;6163570;23;20242;-82
2023/01/27 01:08:56;;;;;;;21.08;10.32;;;2.40;1.00;;;;;;6163631;23;20230;-80
2023/01/27 01:11:24;;;;;;;18.88;10.90;;;2.40;1.00;;;;;;6163060;23;20215;-83
2023/01/27 01:13:51;;;;;;;21.70;9.95;;;2.40;1.00;;;;;;6165309;23;20266;-82
2023/01/27 01:16:20;;;;;;;22.70;11.65;;;2.40;1.00;;;;;;6167081;23;20269;-85
2023/01/27 01:18:50;;;;;;;22.48;11.43;;;2.40;1.00;;;;;;6168998;23;20322;-82
2023/01/27 01:21:17;;;;;;;20.70;10.90;;;2.40;1.00;;;;;;6167477;23;20215;-83
2023/01/27 01:23:46;;;;;;;21.02;10.50;;;2.40;1.00;;;;;;6169096;23;20954;-82
2023/01/27 01:26:14;;;;;;;23.45;12.05;;;2.40;1.00;;;;;;6168193;23;20301;-83
2023/01/27 01:31:29;;;;;;;24.40;12.95;;;2.40;1.00;;;;;;6167669;23;20210;-83
2023/01/27 01:34:04;;;;;;;23.27;12.82;;;2.40;1.00;;;;;;6166759;23;20925;-83
2023/01/27 01:36:46;;;;;;;22.80;10.32;;;2.30;1.00;;;;;;6166046;23;20218;-81
2023/01/27 01:39:15;;;;;;;21.65;12.02;;;2.30;1.00;;;;;;6166593;23;20199;-85
2023/01/27 01:41:46;;;;;;;23.05;11.85;;;2.30;1.00;;;;;;6167854;23;20261;-83
2023/01/27 01:44:20;;;;;;;21.42;10.98;;;2.30;1.00;;;;;;6167767;23;20218;-83
2023/01/27 01:46:47;;;;;;;21.48;12.18;;;2.30;1.00;;;;;;6167505;23;20286;-83
2023/01/27 01:49:17;;;;;;;24.00;11.43;;;2.30;1.00;;;;;;6164924;23;20242;-82
2023/01/27 01:51:48;;;;;;;22.95;11.73;;;2.30;1.00;;;;;;6166605;23;20211;-84
2023/01/27 01:54:18;;;;;;;21.83;11.70;;;2.30;1.00;;;;;;6164201;23;20243;-82
2023/01/27 01:56:50;;;;;;;25.42;12.63;;;2.20;1.00;;;;;;6166254;23;20219;-83
2023/01/27 01:59:20;;;;;;;21.85;11.25;;;2.20;1.00;;;;;;6165959;23;20270;-84
2023/01/27 02:01:48;;;;;;;22.10;11.35;;;2.20;1.00;;;;;;6164085;23;20257;-79
2023/01/27 02:04:19;;;;;;;23.10;12.80;;;2.10;1.00;;;;;;6161889;23;20268;-78
2023/01/27 02:06:56;;;;;;;21.60;11.02;;;2.20;1.00;;;;;;6163898;23;20211;-78
2023/01/27 02:09:24;;;;;;;23.17;11.40;;;2.20;1.00;;;;;;6156219;23;20266;-79
2023/01/27 02:11:51;;;;;;;24.08;13.10;;;2.20;1.00;;;;;;6132978;23;20219;-79
2023/01/27 02:14:19;;;;;;;19.90;10.13;;;2.30;1.00;;;;;;6132648;23;20215;-79
2023/01/27 02:16:46;;;;;;;20.95;10.35;;;2.40;1.00;;;;;;6133310;23;20211;-80
2023/01/27 02:19:25;;;;;;;22.75;11.57;;;2.40;1.00;;;;;;6132294;23;20219;-79
2023/01/27 02:21:56;;;;;;;21.95;11.23;;;2.40;1.00;;;;;;6135141;23;20215;-78
2023/01/27 02:24:29;;;;;;;20.25;10.52;;;2.40;1.00;;;;;;6136225;23;20215;-79
2023/01/27 02:26:58;;;;;;;23.20;10.05;;;2.40;1.00;;;;;;6135126;23;20246;-81
2023/01/27 02:29:25;;;;;;;17.45;10.77;;;2.40;1.00;;;;;;6132994;23;20222;-81
2023/01/27 02:31:54;;;;;;;21.85;10.75;;;2.30;1.00;;;;;;6134641;23;20274;-80
2023/01/27 02:34:28;;;;;;;18.75;8.88;;;2.40;1.00;;;;;;6133523;23;20211;-78
2023/01/27 02:36:59;;;;;;;19.95;10.50;;;2.40;1.00;;;;;;6135772;23;20306;-79
2023/01/27 02:39:32;;;;;;;18.95;9.80;;;2.40;1.00;;;;;;6135971;23;20225;-80
2023/01/27 02:42:04;;;;;;;18.27;10.40;;;2.40;1.00;;;;;;6136313;23;20215;-78
2023/01/27 02:44:32;;;;;;;19.58;9.65;;;2.50;1.00;;;;;;6135164;23;20219;-79
2023/01/27 02:46:58;;;;;;;18.75;9.23;;;2.50;1.00;;;;;;6134650;23;20700;-82
2023/01/27 02:49:26;;;;;;;20.17;9.85;;;2.50;1.00;;;;;;6134688;23;20250;-79
2023/01/27 02:51:56;;;;;;;19.75;9.50;;;2.50;1.00;;;;;;6132324;23;20199;-81
2023/01/27 02:54:25;;;;;;;20.85;11.15;;;2.50;1.00;;;;;;6130210;23;20223;-79
2023/01/27 02:56:52;;;;;;;19.88;9.45;;;2.50;1.00;;;;;;6131553;23;20302;-78
2023/01/27 02:59:22;;;;;;;18.40;9.65;;;2.50;1.00;;;;;;6135434;23;20219;-81
2023/01/27 03:01:49;;;;;;;16.95;9.23;;;2.60;1.00;;;;;;6133797;23;20310;-78
2023/01/27 03:04:17;;;;;;;18.50;9.93;;;2.60;1.00;;;;;;6133085;23;20220;-80
2023/01/27 03:06:44;;;;;;;21.58;9.90;;;2.60;1.00;;;;;;6135399;23;20648;-78
2023/01/27 03:09:11;;;;;;;21.70;10.95;;;2.60;1.00;;;;;;6132776;23;20278;-79
2023/01/27 03:19:56;;;;;;;20.10;10.07;;;2.50;1.00;;;;;;6133370;23;20215;-79
2023/01/27 03:22:26;;;;;;;18.58;10.80;;;2.50;1.00;;;;;;6133362;23;20219;-81
2023/01/27 03:24:53;;;;;;;21.35;10.18;;;2.60;1.00;;;;;;6135169;23;20208;-79
2023/01/27 03:27:20;;;;;;;22.20;10.15;;;2.60;1.00;;;;;;6135555;23;20219;-81
2023/01/27 03:29:57;;;;;;;23.55;10.15;;;2.60;1.00;;;;;;6134179;23;21208;-79
2023/01/27 03:32:25;;;;;;;21.15;9.95;;;2.60;1.00;;;;;;6135379;23;20259;-80
2023/01/27 03:34:57;;;;;;;23.40;11.07;;;2.50;1.00;;;;;;6135601;23;20259;-79
2023/01/27 03:48:30;;;;;;;21.17;9.60;;;2.50;1.00;;;;;;6152289;23;20923;-80
2023/01/27 03:50:58;;;;;;;18.75;10.38;;;2.40;1.00;;;;;;6138622;23;20263;-79
2023/01/27 03:53:25;;;;;;;19.67;10.55;;;2.50;1.00;;;;;;6147249;23;20215;-79
2023/01/27 03:55:52;;;;;;;19.02;10.00;;;2.50;1.00;;;;;;6148838;23;21098;-78
2023/01/27 03:58:22;;;;;;;19.17;10.23;;;2.40;1.00;;;;;;6149577;23;20279;-79
2023/01/27 04:00:53;;;;;;;17.83;9.32;;;2.40;1.00;;;;;;6164971;23;20293;-78
2023/01/27 04:08:53;;;;;;;17.23;9.63;;;2.50;1.00;;;;;;6151189;23;20234;-78
2023/01/27 04:14:05;;;;;;;15.38;9.00;;;2.50;1.00;;;;;;6146616;23;20212;-79
2023/01/27 04:16:35;;;;;;;16.98;8.50;;;2.50;1.00;;;;;;6152799;23;21513;-79
2023/01/27 04:19:06;;;;;;;16.25;8.82;;;2.50;1.00;;;;;;6152629;23;21092;-77
2023/01/27 04:21:34;;;;;;;17.17;8.57;;;2.50;1.00;;;;;;6147856;23;20287;-79
2023/01/27 04:24:02;;;;;;;19.75;10.63;;;2.50;1.00;;;;;;6150179;23;20681;-80
2023/01/27 04:26:33;;;;;;;16.30;9.50;;;2.50;1.00;;;;;;6154776;23;20680;-79
2023/01/27 04:29:06;;;;;;;20.42;11.20;;;2.50;1.00;;;;;;6157032;23;20210;-79
2023/01/27 04:31:41;;;;;;;21.20;10.60;;;2.40;1.00;;;;;;6149406;23;20307;-80
2023/01/27 04:34:14;;;;;;;23.65;10.45;;;2.40;1.00;;;;;;6146254;23;20222;-79
2023/01/27 04:36:43;;;;;;;21.77;10.07;;;2.40;1.00;;;;;;6154997;23;20898;-77
2023/01/27 04:39:13;;;;;;;18.70;10.10;;;2.40;1.00;;;;;;6164260;23;20242;-78
2023/01/27 04:41:44;;;;;;;17.45;10.20;;;2.30;1.00;;;;;;6166679;23;20234;-78
2023/01/27 04:44:12;;;;;;;19.60;10.80;;;2.30;1.00;;;;;;6166205;23;20214;-78
2023/01/27 04:46:40;;;;;;;17.75;9.75;;;2.30;1.00;;;;;;6166745;23;20198;-79
2023/01/27 04:49:10;;;;;;;19.00;8.48;;;2.30;1.00;;;;;;6165943;23;20226;-79
2023/01/27 04:51:37;;;;;;;20.52;10.32;;;2.20;1.00;;;;;;6164443;23;20219;-79
2023/01/27 04:54:06;;;;;;;16.25;8.50;;;2.30;1.00;;;;;;6163907;23;20211;-81
2023/01/27 04:56:35;;;;;;;19.98;8.70;;;2.40;1.00;;;;;;6160602;23;21068;-81
2023/01/27 04:59:05;;;;;;;23.00;9.90;;;2.40;1.00;;;;;;6161539;23;20218;-78
2023/01/27 05:01:34;;;;;;;19.65;10.45;;;2.30;1.00;;;;;;6161447;23;21024;-78
2023/01/27 05:04:15;;;;;;;21.90;9.55;;;2.30;1.00;;;;;;6163397;23;20258;-79
2023/01/27 05:06:48;;;;;;;18.85;8.80;;;2.40;1.00;;;;;;6132183;23;20211;-81
2023/01/27 05:09:17;;;;;;;22.80;12.25;;;2.40;1.00;;;;;;6133197;23;20239;-79
2023/01/27 05:11:47;;;;;;;20.08;9.15;;;2.40;1.00;;;;;;6133833;23;20679;-82
2023/01/27 05:14:16;;;;;;;18.55;10.40;;;2.40;1.00;;;;;;6134441;23;21130;-77
2023/01/27 05:16:45;;;;;;;17.35;9.75;;;2.40;1.00;;;;;;6135177;23;20290;-80
2023/01/27 05:19:18;;;;;;;18.55;8.57;;;2.40;1.00;;;;;;6122797;23;20247;-79
2023/01/27 05:21:45;;;;;;;17.08;7.47;;;2.30;1.00;;;;;;6170843;23;20220;-78
2023/01/27 05:24:27;;;;;;;19.63;8.77;;;2.40;1.00;;;;;;6147093;23;20210;-80
2023/01/27 05:26:56;;;;;;;17.85;8.70;;;2.40;1.00;;;;;;6163989;23;20214;-79
2023/01/27 05:29:45;;;;;;;18.40;8.73;;;2.30;1.00;;;;;;6170156;23;20211;-81
2023/01/27 05:32:18;;;;;;;17.30;9.00;;;2.30;1.00;;;;;;6164697;23;20281;-79
2023/01/27 05:34:46;;;;;;;18.50;9.27;;;2.30;1.00;;;;;;6167884;23;20210;-82
2023/01/27 05:37:15;;;;;;;17.58;8.40;;;2.40;1.00;;;;;;6165829;23;20218;-79
2023/01/27 05:43:17;;;;;;;20.77;8.50;;;2.50;1.00;;;;;;6091769;23;20219;-82
2023/01/27 05:45:47;;;;;;;23.90;9.70;;;2.60;1.00;;;;;;6148150;23;20242;-80
2023/01/27 05:51:27;;;;;;;20.52;11.82;;;2.50;1.00;;;;;;6160327;23;20211;-82
2023/01/27 05:54:04;;;;;;;21.05;9.90;;;2.50;1.00;;;;;;6138412;23;20199;-83
2023/01/27 05:56:44;;;;;;;16.70;8.30;;;2.50;1.00;;;;;;6137132;23;20199;-80
2023/01/27 05:59:27;;;;;;;18.20;7.68;;;2.40;1.00;;;;;;6140154;23;20235;-83
2023/01/27 06:01:58;;;;;;;17.88;8.30;;;2.40;1.00;;;;;;6128379;23;21043;-83
2023/01/27 06:07:36;;;;;;;16.45;8.95;;;2.50;1.00;;;;;;6142081;23;20215;-82
2023/01/27 06:10:15;;;;;;;20.05;8.73;;;2.50;1.00;;;;;;6147834;23;20806;-85
2023/01/27 06:13:06;;;;;;;19.15;8.85;;;2.50;1.00;;;;;;6146501;23;20215;-83
2023/01/27 06:15:58;;;;;;;18.40;8.63;;;2.50;1.00;;;;;;6108644;23;20219;-85
2023/01/27 06:18:34;;;;;;;19.35;9.60;;;2.50;1.00;;;;;;6110176;23;20227;-82
2023/01/27 06:21:09;;;;;;;16.92;8.80;;;2.50;1.00;;;;;;6138262;23;20219;-80
2023/01/27 06:23:38;;;;;;;17.65;9.02;;;2.60;1.00;;;;;;6095921;23;20210;-82
2023/01/27 06:26:15;;;;;;;18.90;9.00;;;2.60;1.00;;;;;;6135156;23;20231;-82
2023/01/27 06:28:54;;;;;;;17.35;8.20;;;2.60;1.00;;;;;;6134866;23;20705;-79
2023/01/27 06:31:27;;;;;;;19.23;8.90;;;2.50;1.00;;;;;;6154271;23;20211;-80
2023/01/27 06:34:04;;;;;;;17.38;9.02;;;2.50;1.00;;;;;;6137146;23;20220;-80
2023/01/27 06:36:37;;;;;;;21.40;12.50;;;2.50;1.00;;;;;;6133514;23;20215;-79
2023/01/27 06:39:16;;;;;;;20.83;8.50;;;2.50;1.00;;;;;;6138791;23;20270;-82
2023/01/27 06:41:56;;;;;;;16.60;7.65;;;2.50;1.00;;;;;;6145375;23;20923;-80
2023/01/27 06:44:35;;;;;;;20.67;8.82;;;2.60;1.00;;;;;;6150091;23;20378;-80
2023/01/27 06:47:05;;;;;;;17.58;7.85;;;2.60;1.00;;;;;;6145858;23;20211;-81
2023/01/27 06:49:35;;;;;;;17.92;8.70;;;2.60;1.00;;;;;;6169733;23;20214;-81
2023/01/27 06:52:08;;;;;;;19.25;9.13;;;2.60;1.00;;;;;;6169747;23;20271;-80
2023/01/27 06:54:40;;;;;;;16.48;7.82;;;2.70;1.00;;;;;;6151729;23;20238;-82
2023/01/27 06:57:17;;;;;;;17.52;9.10;;;2.70;1.00;;;;;;6141338;23;20218;-79
2023/01/27 06:59:55;;;;;;;15.75;8.68;;;2.80;1.00;;;;;;6144621;23;20211;-82
2023/01/27 07:05:19;;;;;;;22.17;9.23;;;2.90;1.00;;;;;;6139703;23;20315;-79
2023/01/27 07:08:00;;;;;;;18.77;9.05;;;2.90;1.00;;;;;;6178225;23;20332;-85
2023/01/27 07:10:57;;;;;;;19.23;11.00;;;2.90;1.00;;;;;;6175967;23;20214;-82
2023/01/27 07:13:27;;;;;;;18.45;8.63;;;2.90;1.00;;;;;;6181252;23;20936;-85
2023/01/27 07:19:04;;;;;;;17.33;7.78;;;3.00;1.00;;;;;;6127780;23;20263;-82
2023/01/27 07:25:16;;;;;;;15.05;7.65;;;3.10;1.00;;;;;;6172847;23;20625;-84
2023/01/27 07:27:49;;;;;;;19.90;9.30;;;3.10;1.00;;;;;;6162982;23;20297;-83
2023/01/27 07:36:36;;;;;;;24.98;9.63;;;3.20;1.00;;;;;;6134549;23;20206;-83
2023/01/27 07:39:07;;;;;;;19.77;10.50;;;3.20;1.00;;;;;;6136411;23;20278;-84
2023/01/27 07:42:01;;;;;;;;;;;;;;;;;;;;;
2023/01/27 07:47:48;;;;;;;17.42;9.38;;;3.30;1.00;;;;;;6089430;22;20204;-84
2023/01/27 07:50:56;;;;;;;19.83;8.60;;;3.30;1.00;;;;;;6116028;23;20210;-83
2023/01/27 08:06:28;;;;;;;17.52;8.57;;;3.50;1.00;;;;;;5973419;23;20228;-83
2023/01/27 08:15:09;;;;;;;16.60;8.13;;;3.60;1.00;;;;;;6003724;23;20387;-83
2023/01/27 08:21:07;;;;;;;38.22;23.73;;;3.70;1.00;;;;;;5977104;23;20214;-87
2023/01/27 08:27:06;;;;;;;15.63;9.35;;;3.80;1.00;;;;;;5881463;23;20267;-86
2023/01/27 08:29:39;;;;;;;15.23;8.68;;;3.80;1.00;;;;;;6026875;23;20222;-83
2023/01/27 08:35:41;;;;;;;15.77;8.43;;;3.70;1.00;;;;;;6009285;23;20307;-85
2023/01/27 08:48:56;;;;;;;;;;;;;;;;;;;;;
2023/01/27 08:55:19;;;;;;;;;;;;;;;;;;;;;
2023/01/27 08:57:59;;;;;;;16.42;9.75;;;3.90;1.00;;;;;;6008599;23;49874;-80
2023/01/27 09:10:23;;;;;;;17.88;9.73;;;4.20;1.00;;;;;;6051021;23;20209;-85
2023/01/27 09:15:56;;;;;;;14.50;7.28;;;4.30;1.00;;;;;;6030512;23;20271;-81
2023/01/27 09:18:47;;;;;;;12.48;7.43;;;4.30;1.00;;;;;;6062117;23;20387;-86
2023/01/27 09:21:18;;;;;;;14.20;8.18;;;4.30;1.00;;;;;;6017439;23;20223;-85
2023/01/27 09:23:49;;;;;;;13.88;7.95;;;4.30;1.00;;;;;;6026066;23;20241;-84
2023/01/27 09:26:28;;;;;;;17.45;8.98;;;4.40;1.00;;;;;;6159648;23;20217;-83
2023/01/27 09:35:10;;;;;;;14.50;7.80;;;4.50;1.00;;;;;;6135958;23;20222;-84
2023/01/27 09:37:57;;;;;;;12.15;6.75;;;4.50;1.00;;;;;;6124311;23;20244;-83
2023/01/27 09:40:46;;;;;;;12.45;7.30;;;4.50;1.00;;;;;;6114646;23;20879;-83
2023/01/27 09:43:37;;;;;;;12.43;7.13;;;4.50;1.00;;;;;;6110684;23;20214;-84
2023/01/27 10:15:19;;;;;;;15.98;8.13;;;4.60;1.00;;;;;;6202650;22;20281;-84
2023/01/27 10:18:19;;;;;;;13.95;7.50;;;4.60;1.00;;;;;;6241413;22;20215;-84
2023/01/27 10:27:50;;;;;;;11.85;5.75;;;4.50;1.00;;;;;;6100642;23;20334;-80
2023/01/27 10:30:47;;;;;;;10.88;5.20;;;4.50;1.00;;;;;;6290844;22;20272;-83
2023/01/27 10:33:20;;;;;;;10.63;5.03;;;4.50;1.00;;;;;;6293914;22;20212;-81
2023/01/27 10:35:56;;;;;;;12.00;5.72;;;4.50;1.00;;;;;;6296176;22;20987;-82
2023/01/27 10:38:47;;;;;;;13.20;5.90;;;4.50;1.00;;;;;;6294362;22;20195;-85
2023/01/27 10:41:40;;;;;;;;;;;;;;;;;;;;;
2023/01/27 10:44:42;;;;;;;10.40;4.88;;;4.60;1.00;;;;;;6296190;22;41233;-84
2023/01/27 10:47:33;;;;;;;13.57;5.15;;;4.60;1.00;;;;;;6297483;22;20693;-83
2023/01/27 10:50:27;;;;;;;11.68;6.00;;;4.70;1.00;;;;;;6299428;22;20192;-84
2023/01/27 10:56:07;;;;;;;15.05;6.57;;;4.80;1.00;;;;;;6272591;22;21043;-85
2023/01/27 10:58:54;;;;;;;10.50;5.50;;;4.80;1.00;;;;;;6290498;22;20217;-85
2023/01/27 11:04:38;;;;;;;12.02;5.15;;;4.80;1.00;;;;;;6284574;22;20269;-81
2023/01/27 11:07:08;;;;;;;10.57;4.88;;;4.90;1.00;;;;;;6299353;22;20231;-81
2023/01/27 11:09:49;;;;;;;13.35;5.45;;;4.90;1.00;;;;;;6316477;22;20668;-84
2023/01/27 11:12:16;;;;;;;10.13;4.75;;;5.00;1.00;;;;;;6320691;22;20258;-82
2023/01/27 11:30:00;;;;;;;;;;;;;;;;;;;;;
2023/01/27 11:36:57;;;;;;;9.32;3.42;;;5.10;1.00;;;;;;6239349;22;20201;-86
2023/01/27 12:09:38;;;;;;;10.30;4.68;;;5.30;1.00;;;;;;6151173;23;20215;-84
2023/01/27 12:12:19;;;;;;;10.25;4.07;;;5.40;1.00;;;;;;6166137;23;20214;-84
2023/01/27 12:21:28;;;;;;;10.40;4.60;;;5.50;1.00;;;;;;6076896;23;20228;-84
2023/01/27 12:24:09;;;;;;;11.18;6.15;;;5.50;1.00;;;;;;6078660;23;20221;-85
2023/01/27 12:26:59;;;;;;;11.15;4.70;;;5.50;1.00;;;;;;6124752;23;20195;-86
2023/01/27 12:35:29;;;;;;;17.40;8.45;;;5.40;1.00;;;;;;6253410;22;20208;-82
2023/01/27 12:44:42;;;;;;;12.00;4.30;;;5.40;1.00;;;;;;6058903;23;20219;-85
2023/01/27 12:50:38;;;;;;;16.52;5.32;;;5.60;1.00;;;;;;6149291;22;20968;-87
2023/01/27 12:53:26;;;;;;;10.10;4.43;;;5.60;1.00;;;;;;6156892;23;20993;-86
2023/01/27 12:56:19;;;;;;;11.85;5.95;;;5.70;1.00;;;;;;6143741;23;20421;-86
2023/01/27 12:58:59;;;;;;;11.15;4.85;;;5.60;1.00;;;;;;6147240;23;20360;-85
2023/01/27 13:01:39;;;;;;;12.82;5.97;;;5.60;1.00;;;;;;6155315;23;20798;-85
2023/01/27 13:04:37;;;;;;;12.52;5.75;;;5.60;1.00;;;;;;6142034;22;20217;-86
2023/01/27 13:07:30;;;;;;;9.40;4.45;;;5.60;1.00;;;;;;6188321;22;20217;-86
2023/01/27 13:10:23;;;;;;;12.10;5.30;;;5.60;1.00;;;;;;6228487;23;20210;-86
2023/01/27 13:13:18;;;;;;;;;;;;;;;;;;;;;
2023/01/27 13:16:28;;;;;;;12.45;5.53;;;5.50;1.00;;;;;;6189581;22;51877;-84
2023/01/27 13:26:08;;;;;;;15.00;6.18;;;5.50;1.00;;;;;;6106393;23;20242;-86
2023/01/27 13:28:59;;;;;;;12.70;5.40;;;5.50;1.00;;;;;;6105947;23;20212;-85
2023/01/27 13:31:47;;;;;;;12.15;5.80;;;5.50;1.00;;;;;;6109929;23;20204;-86
2023/01/27 13:34:50;;;;;;;;;;;;;;;;;;;;;
2023/01/27 13:40:40;;;;;;;11.93;5.28;;;5.60;1.00;;;;;;6227547;23;20223;-85
2023/01/27 13:43:23;;;;;;;11.82;5.45;;;5.60;1.00;;;;;;6230847;22;20674;-86
2023/01/27 13:46:02;;;;;;;12.13;5.43;;;5.50;1.00;;;;;;6222321;23;20761;-85
2023/01/27 13:48:38;;;;;;;9.93;4.20;;;5.50;1.00;;;;;;6228578;22;20215;-85
2023/01/27 13:54:24;;;;;;;10.65;4.40;;;5.30;1.00;;;;;;6176276;22;20300;-86
2023/01/27 13:57:28;;;;;;;9.40;4.38;;;5.20;1.00;;;;;;6222135;22;20240;-84
2023/01/27 14:00:11;;;;;;;10.35;5.20;;;5.30;1.00;;;;;;6223409;22;20218;-86
2023/01/27 14:03:40;;;;;;;;;;;;;;;;;;;;;
2023/01/27 14:06:27;;;;;;;12.90;6.20;;;5.30;1.00;;;;;;6227792;23;50376;-86
2023/01/27 14:09:18;;;;;;;11.55;6.25;;;5.40;1.00;;;;;;6227366;22;20677;-85
2023/01/27 14:11:59;;;;;;;9.93;4.53;;;5.50;1.00;;;;;;6227777;23;20727;-86
2023/01/27 14:14:56;;;;;;;9.50;4.40;;;5.40;1.00;;;;;;6214376;22;20292;-86
2023/01/27 14:21:07;;;;;;;8.90;4.07;;;5.30;1.00;;;;;;6072550;23;20298;-86
2023/01/27 14:23:44;;;;;;;10.05;4.25;;;5.30;1.00;;;;;;6162736;22;20937;-86
2023/01/27 14:26:51;;;;;;;16.95;4.47;;;5.40;1.00;;;;;;6234397;22;20954;-87
2023/01/27 14:29:48;;;;;;;12.68;4.55;;;5.40;1.00;;;;;;6209943;22;20666;-85
2023/01/27 14:32:48;;;;;;;9.45;4.10;;;5.40;1.00;;;;;;6230447;22;20249;-85
2023/01/27 14:35:48;;;;;;;11.80;4.32;;;5.30;1.00;;;;;;6227632;22;20240;-85
2023/01/27 14:38:28;;;;;;;10.73;4.20;;;5.30;1.00;;;;;;6228012;22;20237;-84
2023/01/27 14:41:11;;;;;;;9.88;3.45;;;5.40;1.00;;;;;;6230713;23;20245;-86
2023/01/27 14:43:58;;;;;;;10.93;4.00;;;5.30;1.00;;;;;;6211151;23;20220;-85
2023/01/27 14:50:02;;;;;;;8.48;3.10;;;5.30;1.00;;;;;;6082799;23;20219;-85
2023/01/27 14:55:48;;;;;;;9.40;3.70;;;5.20;1.00;;;;;;6184704;23;20206;-84
2023/01/27 16:08:58;;;;;;;11.40;4.35;;;5.10;1.00;;;;;;6010621;23;20213;-81
2023/01/27 16:12:11;;;;;;;10.32;3.97;;;5.10;1.00;;;;;;6034801;23;20205;-82
2023/01/27 16:18:51;;;;;;;10.10;2.92;;;5.10;1.00;;;;;;6103797;22;20231;-80
2023/01/27 16:21:48;;;;;;;14.13;5.93;;;4.90;1.00;;;;;;6289106;22;20204;-81
2023/01/27 16:24:37;;;;;;;10.30;3.55;;;4.90;1.00;;;;;;6287478;22;20295;-82
2023/01/27 16:27:31;;;;;;;12.20;4.90;;;4.80;1.00;;;;;;6271189;22;20249;-81
2023/01/27 16:30:07;;;;;;;7.85;2.75;;;4.80;1.00;;;;;;6279632;22;20223;-82
2023/01/27 16:32:47;;;;;;;12.25;3.25;;;4.80;1.00;;;;;;6253897;22;20290;-83
2023/01/27 16:35:27;;;;;;;9.43;4.25;;;4.90;1.00;;;;;;6256077;22;20208;-82
2023/01/27 16:38:19;;;;;;;10.70;3.63;;;4.80;1.00;;;;;;6256733;22;20218;-82
2023/01/27 16:41:02;;;;;;;12.07;4.45;;;4.80;1.00;;;;;;6257538;22;20596;-80
2023/01/27 16:43:37;;;;;;;24.33;14.32;;;4.90;1.00;;;;;;6257444;22;20205;-81
2023/01/27 16:46:32;;;;;;;17.40;9.55;;;4.90;1.00;;;;;;6261747;22;20879;-82
2023/01/27 16:49:08;;;;;;;11.77;5.43;;;5.00;1.00;;;;;;6255812;22;20275;-83
2023/01/27 16:51:38;;;;;;;15.95;7.55;;;4.90;1.00;;;;;;6276134;22;20255;-82
2023/01/27 16:54:25;;;;;;;12.77;4.53;;;5.00;1.00;;;;;;6289350;22;20211;-81
2023/01/27 16:59:50;;;;;;;13.88;6.68;;;5.00;1.00;;;;;;6233413;22;20292;-81
2023/01/27 17:02:30;;;;;;;15.07;7.20;;;5.00;1.00;;;;;;6253828;22;20300;-80
2023/01/27 17:05:10;;;;;;;20.20;5.78;;;5.00;1.00;;;;;;6257671;22;20208;-81
2023/01/27 17:07:41;;;;;;;15.13;5.95;;;5.00;1.00;;;;;;6255246;22;20219;-82
2023/01/27 17:10:20;;;;;;;10.40;4.60;;;4.90;1.00;;;;;;6257125;22;20209;-83
2023/01/27 17:12:50;;;;;;;10.00;3.95;;;5.00;1.00;;;;;;6275591;22;20215;-82
2023/01/27 17:15:20;;;;;;;12.55;4.38;;;4.90;1.00;;;;;;6271331;22;20765;-80
2023/01/27 17:17:50;;;;;;;13.13;4.25;;;4.90;1.00;;;;;;6287630;22;20983;-81
2023/01/27 17:20:41;;;;;;;12.10;3.92;;;4.90;1.00;;;;;;6286732;22;20962;-80
2023/01/27 17:23:29;;;;;;;10.18;3.58;;;4.90;1.00;;;;;;6288140;22;20570;-83
2023/01/27 17:26:18;;;;;;;9.38;3.22;;;4.80;1.00;;;;;;6284071;22;20295;-81
2023/01/27 17:28:50;;;;;;;9.80;4.30;;;4.80;1.00;;;;;;6260331;22;20943;-83
2023/01/27 17:31:31;;;;;;;10.07;3.78;;;4.80;1.00;;;;;;6286269;22;20204;-81
2023/01/27 17:34:02;;;;;;;9.02;3.35;;;4.80;1.00;;;;;;6288054;22;20298;-81
2023/01/27 17:36:51;;;;;;;;;;;;;;;;;;;;;
2023/01/27 17:39:30;;;;;;;12.32;3.95;;;4.60;1.00;;;;;;6272072;22;38236;-81
2023/01/27 17:42:00;;;;;;;10.98;3.80;;;4.50;1.00;;;;;;6284717;22;20255;-82
2023/01/27 17:44:30;;;;;;;9.27;3.72;;;4.30;1.00;;;;;;6286231;22;20200;-80
2023/01/27 17:47:10;;;;;;;13.90;5.25;;;4.10;1.00;;;;;;6285968;22;20208;-80
2023/01/27 17:49:39;;;;;;;11.45;4.40;;;4.00;1.00;;;;;;6286077;22;20216;-80
2023/01/27 17:52:18;;;;;;;10.45;3.55;;;3.90;1.00;;;;;;6280370;22;20216;-81
2023/01/27 17:54:58;;;;;;;10.43;3.85;;;3.80;1.00;;;;;;6276833;22;20261;-82
2023/01/27 17:57:38;;;;;;;12.93;4.78;;;3.70;1.00;;;;;;6286331;22;20199;-81
2023/01/27 18:00:27;;;;;;;12.43;4.68;;;3.60;1.00;;;;;;6287141;22;20218;-82
2023/01/27 18:03:00;;;;;;;10.85;3.90;;;3.60;1.00;;;;;;6279149;22;20300;-80
2023/01/27 18:05:38;;;;;;;11.18;3.58;;;3.60;1.00;;;;;;6285705;22;20212;-82
2023/01/27 18:08:10;;;;;;;9.55;4.00;;;3.50;1.00;;;;;;6287921;22;20204;-82
2023/01/27 18:10:50;;;;;;;9.52;3.80;;;3.40;1.00;;;;;;6289368;22;20283;-82
2023/01/27 18:13:41;;;;;;;10.25;4.32;;;3.50;1.00;;;;;;6288495;22;20207;-82
2023/01/27 18:16:31;;;;;;;14.00;4.65;;;3.50;1.00;;;;;;6291244;22;20207;-82
2023/01/27 18:19:21;;;;;;;9.57;3.95;;;3.50;1.00;;;;;;6255316;22;20212;-81
2023/01/27 18:22:03;;;;;;;9.75;3.92;;;3.60;1.00;;;;;;6256672;22;20208;-81
2023/01/27 18:27:28;;;;;;;12.00;3.95;;;3.80;1.00;;;;;;6264997;22;20218;-82
2023/01/27 18:30:10;;;;;;;11.52;5.00;;;3.90;1.00;;;;;;6256671;22;20284;-82
2023/01/27 18:32:50;;;;;;;11.73;4.47;;;3.90;1.00;;;;;;6286277;22;20219;-81
2023/01/27 18:35:28;;;;;;;11.48;4.93;;;3.90;1.00;;;;;;6287897;22;20208;-80
2023/01/27 18:38:29;;;;;;;11.68;5.07;;;3.90;1.00;;;;;;6258514;22;20906;-81
2023/01/27 18:41:11;;;;;;;12.13;4.00;;;4.00;1.00;;;;;;6241918;22;20231;-80
2023/01/27 18:43:41;;;;;;;13.43;4.03;;;4.10;1.00;;;;;;6256270;22;20204;-83
2023/01/27 18:46:10;;;;;;;10.10;3.42;;;4.20;1.00;;;;;;6257418;22;20668;-81
2023/01/27 18:48:39;;;;;;;15.85;4.45;;;4.20;1.00;;;;;;6225875;23;20209;-80
2023/01/27 18:51:19;;;;;;;8.88;3.00;;;4.20;1.00;;;;;;6229400;23;20238;-80
2023/01/27 18:54:10;;;;;;;10.07;4.15;;;4.20;1.00;;;;;;6227222;23;20214;-80
2023/01/27 18:56:38;;;;;;;11.32;3.92;;;4.20;1.00;;;;;;6222532;22;20260;-83
2023/01/27 18:59:21;;;;;;;10.18;3.38;;;4.30;1.00;;;;;;6209542;23;20201;-81
2023/01/27 19:01:51;;;;;;;11.27;4.63;;;4.30;1.00;;;;;;6222302;22;20236;-82
2023/01/27 19:04:29;;;;;;;13.10;4.00;;;4.40;1.00;;;;;;6227807;22;20221;-80
2023/01/27 19:06:59;;;;;;;13.30;4.40;;;4.40;1.00;;;;;;6223518;22;20239;-82
2023/01/27 19:09:38;;;;;;;10.43;3.78;;;4.30;1.00;;;;;;6237306;22;21253;-83
2023/01/27 19:12:22;;;;;;;;;;;;;;;;;;;;;
2023/01/27 19:14:49;;;;;;;12.48;4.32;;;4.30;1.00;;;;;;6255890;22;49455;-81
2023/01/27 19:17:30;;;;;;;11.15;3.50;;;4.30;1.00;;;;;;6255586;22;20283;-81
2023/01/27 19:26:22;;;;;;;13.95;4.60;;;4.20;1.00;;;;;;6204928;22;20225;-84
2023/01/27 19:29:00;;;;;;;12.48;5.28;;;4.20;1.00;;;;;;6263597;22;20235;-82
2023/01/27 19:31:31;;;;;;;13.05;5.13;;;4.10;1.00;;;;;;6263491;22;20208;-81
2023/01/27 19:34:02;;;;;;;13.40;5.55;;;4.10;1.00;;;;;;6264195;22;20223;-81
2023/01/27 19:36:41;;;;;;;12.45;4.75;;;4.10;1.00;;;;;;6258842;22;20223;-82
2023/01/27 19:42:02;;;;;;;11.70;5.30;;;4.00;1.00;;;;;;6248822;22;20993;-82
2023/01/27 19:44:50;;;;;;;11.90;4.55;;;3.90;1.00;;;;;;6260577;22;20220;-81
2023/01/27 19:47:21;;;;;;;10.18;4.60;;;3.90;1.00;;;;;;6243976;22;20212;-82
2023/01/27 19:49:51;;;;;;;11.57;5.07;;;3.90;1.00;;;;;;6244061;22;20728;-83
2023/01/27 19:52:30;;;;;;;8.90;3.72;;;3.90;1.00;;;;;;6243460;22;20209;-81